Marchin, Belgium
Current Conditions -  °F | °C
As of 6:50 AM on Wednesday 22 Oct 2014 (Local Time) from EBLG Reporting Station
Rain Showers Rain Showers  
Wind Chill: 34°   Ceiling: 2600
Heat Index: 41°   Visibility: 2.6mi
Dew Point: 39°   Wind: 12mph
Humidity: 93%   Direction: 290°WNW
Pressure: 30.03"   Gusts: NA
Location:  50.47°N, 5.24°E
Report Text: EBLG 220450Z 29010KT 250V320 4200 SHRA SCT012 SCT016TCU BKN026 05/04 Q1017 TEMPO 28018G28KT 4000 SHRA
Loading
Personal Weather Stations






























Interactive Weather Map
Tropical Storm Tracking
New forecast layout! Learn more

10-Day Weather Forecast

Advertisements
Track Severe Weather on mobile